Terminal Aerodrome Forecast
Issued by NWS San Angelo, TX

Home | Current Version | Previous Version | Text Only | Print | Product List | Glossary On
Versions: 1 2 3 4 5 6 7 8 9 10 11 12 13 14 15 16 17 18 19 20 21 22 23 24 25 26 27 28 29 30 31 32 33 34
106
FTUS44 KSJT 171157
TAFSJT
TAF
KSJT 171157Z 1712/1812 03007KT P6SM BKN050
     FM171800 04006KT P6SM -SHRA SCT025 OVC035
     FM172100 04005KT 4SM -SHRA OVC025
     FM180200 02005KT 2SM -DZ BR OVC007=

USA.gov is the U.S. government's official web portal to all federal, state and local government web resources and services.